Time;durP1;ratioP1;P1;durP2;ratioP2;P2;SDS_P1;SDS_P2;PMS_P1;PMS_P2;Temp;Humidity;BMP_temperature;BMP_pressure;BME280_temperature;BME280_humidity;BME280_pressure;Samples;Min_cycle;Max_cycle;Signal;HPM_P1;HPM_P2
2023/07/06 00:00:15;;;;;;;66.07;55.30;;;19.60;99.90;;;;;;5033799;28;20132;-58
2023/07/06 00:02:41;;;;;;;63.83;52.00;;;19.60;99.90;;;;;;5033452;28;20521;-58
2023/07/06 00:05:08;;;;;;;63.78;53.65;;;19.60;99.90;;;;;;5033929;28;20025;-58
2023/07/06 00:07:35;;;;;;;63.60;52.95;;;19.60;99.90;;;;;;5033606;28;20037;-58
2023/07/06 00:10:02;;;;;;;64.20;53.75;;;19.50;99.90;;;;;;5033780;28;20026;-58
2023/07/06 00:12:29;;;;;;;64.45;52.63;;;19.50;99.90;;;;;;5033626;28;20029;-58
2023/07/06 00:14:55;;;;;;;64.18;53.65;;;19.50;99.90;;;;;;5033777;28;20033;-58
2023/07/06 00:17:22;;;;;;;62.10;53.55;;;19.40;99.90;;;;;;5033833;28;20116;-58
2023/07/06 00:19:48;;;;;;;64.70;52.63;;;19.40;99.90;;;;;;5033621;28;20053;-58
2023/07/06 00:22:14;;;;;;;65.07;52.15;;;19.40;99.90;;;;;;5033482;28;20076;-58
2023/07/06 00:24:46;;;;;;;67.53;53.70;;;19.40;99.90;;;;;;5036045;28;20024;-58
2023/07/06 00:27:15;;;;;;;67.53;52.72;;;19.40;99.90;;;;;;5037186;28;20036;-58
2023/07/06 00:29:56;;;;;;;66.22;53.05;;;19.40;99.90;;;;;;5037291;28;20017;-58
2023/07/06 00:32:28;;;;;;;59.88;50.60;;;19.30;99.90;;;;;;5019343;28;20036;-58
2023/07/06 00:34:55;;;;;;;62.03;50.17;;;19.30;99.90;;;;;;5035758;28;20021;-58
2023/07/06 00:37:22;;;;;;;62.92;51.67;;;19.20;99.90;;;;;;5037074;28;20033;-58
2023/07/06 00:39:49;;;;;;;68.40;52.42;;;19.20;99.90;;;;;;5036905;28;20543;-57
2023/07/06 00:42:17;;;;;;;66.57;51.22;;;19.30;99.90;;;;;;5019183;28;20134;-58
2023/07/06 00:44:57;;;;;;;66.03;52.90;;;19.30;99.90;;;;;;5036892;28;20053;-58
2023/07/06 00:47:39;;;;;;;65.25;52.13;;;19.30;99.90;;;;;;5036949;28;20103;-58
2023/07/06 00:50:12;;;;;;;65.03;53.13;;;19.20;99.90;;;;;;5019213;28;20519;-58
2023/07/06 00:52:48;;;;;;;63.40;50.25;;;19.20;99.90;;;;;;5018981;28;20044;-58
2023/07/06 00:55:18;;;;;;;63.78;51.38;;;19.10;99.90;;;;;;5036722;28;20128;-58
2023/07/06 00:57:51;;;;;;;62.65;51.20;;;19.10;99.90;;;;;;5018886;28;20076;-58
2023/07/06 01:00:20;;;;;;;68.57;52.10;;;19.10;99.90;;;;;;5036743;28;20060;-58
2023/07/06 01:02:51;;;;;;;62.83;51.40;;;19.00;99.90;;;;;;5036464;28;20026;-58
2023/07/06 01:05:18;;;;;;;;;;;19.00;99.90;;;;;;5037247;28;20033;-58
2023/07/06 01:07:47;;;;;;;62.40;50.85;;;18.90;99.90;;;;;;5036576;28;19921;-58
2023/07/06 01:10:14;;;;;;;59.78;49.70;;;18.90;99.90;;;;;;5018500;28;20062;-58
2023/07/06 01:12:40;;;;;;;61.55;51.08;;;18.80;99.90;;;;;;5018776;28;20461;-58
2023/07/06 01:15:06;;;;;;;60.78;50.65;;;18.80;99.90;;;;;;5036392;28;20109;-58
2023/07/06 01:17:55;;;;;;;61.20;49.65;;;18.80;99.90;;;;;;5036202;28;20026;-57
2023/07/06 01:20:31;;;;;;;59.40;48.03;;;18.80;99.90;;;;;;5036240;28;20033;-57
2023/07/06 01:23:44;;;;;;;59.47;49.65;;;18.80;99.90;;;;;;5036234;28;20048;-58
2023/07/06 01:26:15;;;;;;;56.70;47.97;;;18.80;99.90;;;;;;5036153;28;20026;-58
2023/07/06 01:28:50;;;;;;;56.60;47.90;;;18.80;99.90;;;;;;5018165;28;20022;-58
2023/07/06 01:31:28;;;;;;;61.45;47.95;;;18.70;99.90;;;;;;5018066;28;20517;-58
2023/07/06 01:34:07;;;;;;;61.15;49.83;;;18.70;99.90;;;;;;5036035;28;20025;-58
2023/07/06 01:36:43;;;;;;;59.53;50.75;;;18.70;99.90;;;;;;5035927;28;20078;-58
2023/07/06 01:39:21;;;;;;;62.05;50.22;;;18.70;99.90;;;;;;5034539;28;20053;-58
2023/07/06 01:42:09;;;;;;;60.17;48.78;;;18.60;99.90;;;;;;5035684;28;20044;-58
2023/07/06 01:44:36;;;;;;;63.67;50.08;;;18.60;99.90;;;;;;5035676;28;20151;-58
2023/07/06 01:47:03;;;;;;;65.28;50.80;;;18.60;99.90;;;;;;5035731;28;20116;-58
2023/07/06 01:49:30;;;;;;;60.70;51.75;;;18.60;99.90;;;;;;5017922;28;20076;-58
2023/07/06 01:52:10;;;;;;;61.33;50.03;;;18.60;99.90;;;;;;5034379;28;20029;-58
2023/07/06 01:54:50;;;;;;;60.60;49.08;;;18.50;99.90;;;;;;5034454;28;20057;-58
2023/07/06 01:57:25;;;;;;;62.65;49.65;;;18.50;99.90;;;;;;5035516;28;20105;-58
2023/07/06 01:59:54;;;;;;;60.40;48.45;;;18.50;99.90;;;;;;5034201;28;20386;-58
2023/07/06 02:02:21;;;;;;;61.33;49.60;;;18.50;99.90;;;;;;5035508;28;20029;-58
2023/07/06 02:04:49;;;;;;;59.72;49.17;;;18.40;99.90;;;;;;5017547;28;20073;-58
2023/07/06 02:07:20;;;;;;;61.33;50.03;;;18.40;99.90;;;;;;5017435;28;20168;-58
2023/07/06 02:09:47;;;;;;;58.97;47.10;;;18.50;99.90;;;;;;5035607;28;20029;-58
2023/07/06 02:12:13;;;;;;;57.35;47.58;;;18.40;99.90;;;;;;5017561;28;20099;-57
2023/07/06 02:14:41;;;;;;;61.13;49.17;;;18.50;99.90;;;;;;5017418;28;20033;-58
2023/07/06 02:17:07;;;;;;;59.22;47.22;;;18.40;99.90;;;;;;5033978;28;20497;-58
2023/07/06 02:19:35;;;;;;;55.92;46.00;;;18.40;99.90;;;;;;5017297;28;20060;-58
2023/07/06 02:22:04;;;;;;;58.20;46.80;;;18.30;99.90;;;;;;5035505;28;20068;-58
2023/07/06 02:24:31;;;;;;;58.07;45.33;;;18.30;99.90;;;;;;5035239;28;20033;-58
2023/07/06 02:26:57;;;;;;;58.65;46.55;;;18.30;99.90;;;;;;5035039;28;20464;-58
2023/07/06 02:29:23;;;;;;;57.72;46.47;;;18.30;99.90;;;;;;5034961;28;20148;-58
2023/07/06 02:31:49;;;;;;;58.40;48.58;;;18.40;99.90;;;;;;5035046;28;20056;-58
2023/07/06 02:34:24;;;;;;;58.65;48.78;;;18.40;99.90;;;;;;5034967;28;20090;-58
2023/07/06 02:36:54;;;;;;;62.70;50.70;;;18.40;99.90;;;;;;5033618;28;20152;-58
2023/07/06 02:39:24;;;;;;;64.22;50.42;;;18.40;99.90;;;;;;5034924;28;20039;-58
2023/07/06 02:41:52;;;;;;;60.78;49.00;;;18.50;99.90;;;;;;5034596;28;20036;-58
2023/07/06 02:44:22;;;;;;;59.65;49.42;;;18.50;99.90;;;;;;5034664;28;20383;-58
2023/07/06 02:46:48;;;;;;;59.90;48.97;;;18.50;99.90;;;;;;5034107;28;20056;-58
2023/07/06 02:49:15;;;;;;;59.55;48.10;;;18.50;99.90;;;;;;5016796;28;20036;-58
2023/07/06 02:51:41;;;;;;;60.92;48.53;;;18.50;99.90;;;;;;5034630;28;20029;-58
2023/07/06 02:54:10;;;;;;;57.38;47.15;;;18.60;99.90;;;;;;5034619;28;20426;-58
2023/07/06 02:56:36;;;;;;;64.13;49.13;;;18.60;99.90;;;;;;5034891;28;20056;-58
2023/07/06 02:59:02;;;;;;;59.50;48.33;;;18.50;99.90;;;;;;5016931;28;20061;-58
2023/07/06 03:01:29;;;;;;;58.60;49.50;;;18.50;99.90;;;;;;5034457;28;20064;-58
2023/07/06 03:03:54;;;;;;;62.05;48.58;;;18.60;99.90;;;;;;5034382;28;20024;-58
2023/07/06 03:06:20;;;;;;;63.47;49.78;;;18.50;99.90;;;;;;5034394;28;20042;-58
2023/07/06 03:08:47;;;;;;;57.47;46.58;;;18.60;99.90;;;;;;5016600;28;20395;-58
2023/07/06 03:11:14;;;;;;;57.63;46.65;;;18.60;99.90;;;;;;5016478;28;20029;-58
2023/07/06 03:13:41;;;;;;;59.33;49.10;;;18.70;99.90;;;;;;5034530;28;20033;-58
2023/07/06 03:16:08;;;;;;;62.55;50.22;;;18.70;99.90;;;;;;5016671;28;20053;-58
2023/07/06 03:18:34;;;;;;;56.50;47.05;;;18.70;99.90;;;;;;5034312;28;20037;-58
2023/07/06 03:21:00;;;;;;;57.90;47.05;;;18.60;99.90;;;;;;5034264;28;20041;-58
2023/07/06 03:23:27;;;;;;;57.95;47.13;;;18.60;99.90;;;;;;5016573;28;20034;-58
2023/07/06 03:25:53;;;;;;;61.78;47.45;;;18.70;99.90;;;;;;5034264;28;20430;-58
2023/07/06 03:28:21;;;;;;;62.67;46.67;;;18.60;99.90;;;;;;5016486;28;20062;-58
2023/07/06 03:30:56;;;;;;;57.28;46.33;;;18.70;99.90;;;;;;5034117;28;20386;-58
2023/07/06 03:33:24;;;;;;;56.17;45.55;;;18.70;99.90;;;;;;5034435;28;20025;-58
2023/07/06 03:35:54;;;;;;;54.83;44.97;;;18.70;99.90;;;;;;5034361;28;20059;-58
2023/07/06 03:38:25;;;;;;;57.45;47.10;;;18.60;99.90;;;;;;5016426;28;20475;-58
2023/07/06 03:40:52;;;;;;;57.30;47.20;;;18.70;99.90;;;;;;5034160;28;20037;-58
2023/07/06 03:43:19;;;;;;;57.67;47.40;;;18.70;99.90;;;;;;5034063;28;20028;-58
2023/07/06 03:45:47;;;;;;;56.85;46.58;;;18.70;99.90;;;;;;5034113;28;20037;-58
2023/07/06 03:48:16;;;;;;;57.75;45.78;;;18.80;99.90;;;;;;5033962;28;20057;-58
2023/07/06 03:50:43;;;;;;;59.67;45.60;;;18.70;99.90;;;;;;5033926;28;20112;-58
2023/07/06 03:53:10;;;;;;;54.55;44.33;;;18.70;99.90;;;;;;5034191;28;20044;-58
2023/07/06 03:55:37;;;;;;;59.05;47.08;;;18.70;99.90;;;;;;5034463;28;20026;-58
2023/07/06 03:58:03;;;;;;;54.80;44.83;;;18.70;99.90;;;;;;5033894;28;20084;-58
2023/07/06 04:00:29;;;;;;;60.03;48.40;;;18.70;99.90;;;;;;5037531;28;20037;-58
2023/07/06 04:02:57;;;;;;;58.50;47.38;;;18.80;99.90;;;;;;5037589;28;20022;-58
2023/07/06 04:05:32;;;;;;;57.03;46.85;;;18.80;99.90;;;;;;5037513;28;20038;-58
2023/07/06 04:08:03;;;;;;;62.42;46.35;;;18.90;99.90;;;;;;5037791;28;20087;-58
2023/07/06 04:10:30;;;;;;;57.10;47.58;;;18.90;99.90;;;;;;5037448;28;20463;-58
2023/07/06 04:12:57;;;;;;;67.63;49.20;;;18.80;99.90;;;;;;5037542;28;20037;-58
2023/07/06 04:15:23;;;;;;;62.13;47.90;;;18.90;99.90;;;;;;5037357;28;20052;-58
2023/07/06 04:17:52;;;;;;;65.45;50.42;;;19.00;99.90;;;;;;5037570;28;20040;-58
2023/07/06 04:20:26;;;;;;;60.85;50.47;;;19.00;99.90;;;;;;5037326;28;20120;-58
2023/07/06 04:22:57;;;;;;;63.95;48.65;;;19.10;99.90;;;;;;5037469;28;20029;-58
2023/07/06 04:25:31;;;;;;;62.92;49.83;;;19.10;99.90;;;;;;5037280;28;20037;-58
2023/07/06 04:27:59;;;;;;;61.58;49.40;;;19.10;99.90;;;;;;5037276;28;20556;-58
2023/07/06 04:30:25;;;;;;;63.63;50.75;;;19.20;99.90;;;;;;5037300;28;20092;-58
2023/07/06 04:32:51;;;;;;;65.10;50.55;;;19.30;99.90;;;;;;5037319;28;20033;-58
2023/07/06 04:35:21;;;;;;;68.18;50.67;;;19.30;99.90;;;;;;5037141;28;20037;-58
2023/07/06 04:37:49;;;;;;;64.47;50.53;;;19.40;99.90;;;;;;5036968;28;20027;-58
2023/07/06 04:40:18;;;;;;;71.25;51.80;;;19.50;99.90;;;;;;5036862;28;20029;-58
2023/07/06 04:42:46;;;;;;;63.40;49.20;;;19.50;99.90;;;;;;5036949;28;20025;-58
2023/07/06 04:45:13;;;;;;;66.90;50.00;;;19.70;99.90;;;;;;5036816;28;20037;-58
2023/07/06 04:47:40;;;;;;;63.85;48.67;;;19.80;99.90;;;;;;5036895;28;20029;-58
2023/07/06 04:50:12;;;;;;;64.18;49.88;;;19.80;99.90;;;;;;5036665;28;20040;-58
2023/07/06 04:52:38;;;;;;;71.38;51.45;;;20.00;99.90;;;;;;5036901;28;20033;-58
2023/07/06 04:55:10;;;;;;;64.22;49.15;;;20.10;99.90;;;;;;5036660;28;20025;-58
2023/07/06 04:57:37;;;;;;;60.63;47.63;;;20.20;99.90;;;;;;5036601;28;20025;-58
2023/07/06 05:00:18;;;;;;;64.13;50.05;;;20.30;99.90;;;;;;5036541;28;20034;-58
2023/07/06 05:02:47;;;;;;;65.15;48.50;;;20.40;99.90;;;;;;5036533;28;20402;-58
2023/07/06 05:05:17;;;;;;;63.70;48.15;;;20.50;99.90;;;;;;5036596;28;20486;-58
2023/07/06 05:07:43;;;;;;;64.93;47.45;;;20.60;99.90;;;;;;5036445;28;20041;-58
2023/07/06 05:10:09;;;;;;;69.57;47.85;;;20.70;99.90;;;;;;5035969;28;20361;-58
2023/07/06 05:12:35;;;;;;;63.42;48.10;;;20.80;99.90;;;;;;5036320;28;20139;-58
2023/07/06 05:15:02;;;;;;;63.22;49.00;;;20.90;99.90;;;;;;5036125;28;20383;-58
2023/07/06 05:17:28;;;;;;;65.47;48.15;;;21.00;99.90;;;;;;5036259;28;20123;-58
2023/07/06 05:19:55;;;;;;;69.60;50.50;;;21.10;99.90;;;;;;5036771;28;20063;-58
2023/07/06 05:22:21;;;;;;;68.22;50.10;;;21.20;99.90;;;;;;5036684;28;20041;-58
2023/07/06 05:24:48;;;;;;;90.82;57.85;;;21.30;99.90;;;;;;5036853;28;20440;-58
2023/07/06 05:27:14;;;;;;;96.45;60.92;;;21.30;99.90;;;;;;5036671;28;20436;-58
2023/07/06 05:29:40;;;;;;;103.15;65.00;;;21.30;99.90;;;;;;5035232;28;20025;-58
2023/07/06 05:32:08;;;;;;;107.63;64.38;;;21.40;99.90;;;;;;5036838;28;20028;-58
2023/07/06 05:34:34;;;;;;;103.53;65.72;;;21.50;99.90;;;;;;5035810;28;20040;-58
2023/07/06 05:37:01;;;;;;;106.90;67.00;;;21.40;99.90;;;;;;5036552;28;20021;-58
2023/07/06 05:39:26;;;;;;;113.85;68.80;;;21.30;99.90;;;;;;5036585;28;20025;-58
2023/07/06 05:41:52;;;;;;;118.65;70.35;;;21.30;99.90;;;;;;5036068;28;20037;-58
2023/07/06 05:44:18;;;;;;;120.13;70.63;;;21.30;99.90;;;;;;5036383;28;20026;-58
2023/07/06 05:46:44;;;;;;;109.18;67.45;;;21.40;99.90;;;;;;5033507;28;20344;-58
2023/07/06 05:49:10;;;;;;;108.07;67.85;;;21.50;99.90;;;;;;5036218;28;20018;-58
2023/07/06 05:51:36;;;;;;;116.10;69.28;;;21.60;99.90;;;;;;5035020;28;20105;-58
2023/07/06 05:54:02;;;;;;;121.32;73.05;;;21.70;99.90;;;;;;5036251;28;20033;-58
2023/07/06 05:56:30;;;;;;;143.60;79.95;;;21.80;99.90;;;;;;5035565;28;20383;-58
2023/07/06 05:58:59;;;;;;;139.32;83.85;;;21.90;99.90;;;;;;5035435;28;20112;-58
2023/07/06 06:01:26;;;;;;;136.88;79.40;;;21.80;99.90;;;;;;5035880;28;20430;-58
2023/07/06 06:03:52;;;;;;;147.13;78.70;;;21.80;99.90;;;;;;5035644;28;20483;-58
2023/07/06 06:06:21;;;;;;;164.40;80.18;;;21.90;99.90;;;;;;5035573;28;20491;-58
2023/07/06 06:08:47;;;;;;;131.98;74.13;;;22.00;99.90;;;;;;5035735;28;20071;-58
2023/07/06 06:11:15;;;;;;;146.45;76.13;;;22.10;99.90;;;;;;5035748;28;20037;-58
2023/07/06 06:13:43;;;;;;;138.45;75.32;;;22.10;99.90;;;;;;5035740;28;20030;-58
2023/07/06 06:16:12;;;;;;;136.23;75.03;;;22.20;99.90;;;;;;5033495;28;20106;-58
2023/07/06 06:18:41;;;;;;;131.95;69.38;;;22.40;99.90;;;;;;5028425;28;20498;-58
2023/07/06 06:21:07;;;;;;;123.07;67.23;;;22.60;99.90;;;;;;5033679;28;20037;-58
2023/07/06 06:23:34;;;;;;;109.75;62.95;;;22.70;99.90;;;;;;5034771;28;20028;-58
2023/07/06 06:26:00;;;;;;;100.53;59.35;;;22.90;99.90;;;;;;5033052;28;20036;-58
2023/07/06 06:28:26;;;;;;;86.75;54.17;;;23.10;99.90;;;;;;5035215;28;20034;-58
2023/07/06 06:30:53;;;;;;;98.43;56.80;;;23.40;99.90;;;;;;5035059;28;20482;-58
2023/07/06 06:33:19;;;;;;;87.40;54.25;;;23.50;99.90;;;;;;5035113;28;20029;-58
2023/07/06 06:35:45;;;;;;;82.55;52.38;;;23.70;99.90;;;;;;5034584;28;20079;-58
2023/07/06 06:38:11;;;;;;;80.80;47.80;;;23.80;99.90;;;;;;5034811;28;20037;-58
2023/07/06 06:40:37;;;;;;;78.40;48.60;;;24.00;99.90;;;;;;5031428;28;20025;-58
2023/07/06 06:43:04;;;;;;;73.80;48.88;;;24.00;99.90;;;;;;5028576;28;20030;-57
2023/07/06 06:45:31;;;;;;;64.03;43.97;;;24.20;99.90;;;;;;5035348;28;20560;-57
2023/07/06 06:47:58;;;;;;;63.25;42.45;;;24.20;99.90;;;;;;5033957;28;20033;-57
2023/07/06 06:50:23;;;;;;;64.15;42.33;;;24.30;99.90;;;;;;5034666;28;20044;-57
2023/07/06 06:52:50;;;;;;;58.20;38.97;;;24.40;99.90;;;;;;5034182;28;20022;-58
2023/07/06 06:55:16;;;;;;;59.75;38.97;;;24.60;99.90;;;;;;5028987;28;20034;-58
2023/07/06 06:57:43;;;;;;;58.33;36.95;;;24.70;99.90;;;;;;5027118;28;20029;-58
2023/07/06 07:00:10;;;;;;;46.40;33.97;;;24.80;99.90;;;;;;5015578;28;20040;-58
2023/07/06 07:02:38;;;;;;;51.15;32.42;;;24.90;99.90;;;;;;5017559;28;20152;-58
2023/07/06 07:05:09;;;;;;;58.60;32.95;;;24.90;99.90;;;;;;5023920;28;20399;-58
2023/07/06 07:07:38;;;;;;;47.15;29.80;;;25.10;99.90;;;;;;5020585;28;20045;-58
2023/07/06 07:10:11;;;;;;;46.35;30.75;;;25.20;99.90;;;;;;5028396;28;20037;-58
2023/07/06 07:12:41;;;;;;;49.38;29.52;;;25.20;99.90;;;;;;5034361;28;20359;-58
2023/07/06 07:15:09;;;;;;;;;;;25.40;99.90;;;;;;5033959;28;20029;-58
2023/07/06 07:17:35;;;;;;;40.20;25.30;;;25.60;99.90;;;;;;5034507;28;19915;-58
2023/07/06 07:20:02;;;;;;;34.80;22.60;;;25.60;99.90;;;;;;5033796;28;20067;-58
2023/07/06 07:22:27;;;;;;;34.50;21.75;;;26.00;99.90;;;;;;5034165;28;20052;-59
2023/07/06 07:24:53;;;;;;;33.28;20.98;;;26.10;99.90;;;;;;5034131;28;20033;-59
2023/07/06 07:27:20;;;;;;;26.45;18.85;;;26.40;99.90;;;;;;5033990;28;20038;-58
2023/07/06 07:29:47;;;;;;;27.10;17.92;;;26.60;99.90;;;;;;5034092;28;20084;-59
2023/07/06 07:32:14;;;;;;;31.42;18.15;;;27.00;99.90;;;;;;5034208;28;20441;-58
2023/07/06 07:34:40;;;;;;;26.10;16.77;;;27.00;99.40;;;;;;5037638;28;20029;-58
2023/07/06 07:37:10;;;;;;;25.98;16.42;;;27.20;99.30;;;;;;5036617;28;20052;-58
2023/07/06 07:39:36;;;;;;;22.33;16.15;;;27.40;97.90;;;;;;5037672;28;20064;-58
2023/07/06 07:42:03;;;;;;;21.00;15.57;;;27.50;96.80;;;;;;5038412;28;20069;-59
2023/07/06 07:44:29;;;;;;;26.73;15.35;;;27.20;95.40;;;;;;5036864;28;20071;-59
2023/07/06 07:46:55;;;;;;;19.52;14.75;;;27.60;98.00;;;;;;5038654;28;20515;-58
2023/07/06 07:49:21;;;;;;;23.15;14.50;;;27.90;95.70;;;;;;5038582;28;20112;-58
2023/07/06 07:51:47;;;;;;;20.02;13.60;;;27.90;95.30;;;;;;5038407;28;20537;-58
2023/07/06 07:54:13;;;;;;;21.50;13.85;;;28.10;94.40;;;;;;5035348;28;20417;-58
2023/07/06 07:56:42;;;;;;;17.92;13.27;;;28.30;95.40;;;;;;5037307;28;20033;-58
2023/07/06 07:59:09;;;;;;;17.70;12.43;;;28.60;93.50;;;;;;5056906;28;20033;-58
2023/07/06 08:01:35;;;;;;;18.08;13.65;;;28.50;92.50;;;;;;5058160;28;20429;-58
2023/07/06 08:04:02;;;;;;;19.13;13.35;;;28.60;91.70;;;;;;5057433;28;20646;-58
2023/07/06 08:06:28;;;;;;;17.88;13.27;;;28.60;91.60;;;;;;5029666;28;20459;-58
2023/07/06 08:08:56;;;;;;;19.85;13.45;;;28.70;91.10;;;;;;5014969;28;20038;-58
2023/07/06 08:11:24;;;;;;;27.75;15.95;;;28.60;92.20;;;;;;5034249;28;20040;-59
2023/07/06 08:13:55;;;;;;;23.23;16.92;;;28.80;92.10;;;;;;5035128;28;20056;-58
2023/07/06 08:16:23;;;;;;;27.20;17.08;;;29.10;92.30;;;;;;5034267;28;20021;-58
2023/07/06 08:18:55;;;;;;;25.23;16.77;;;28.90;91.70;;;;;;5034093;28;20032;-58
2023/07/06 08:21:22;;;;;;;22.45;16.35;;;28.50;92.20;;;;;;5031607;28;20065;-59
2023/07/06 08:23:50;;;;;;;20.00;14.50;;;28.40;92.80;;;;;;5036774;28;20033;-58
2023/07/06 08:26:17;;;;;;;22.33;14.88;;;28.80;93.10;;;;;;5031238;28;20029;-58
2023/07/06 08:28:44;;;;;;;25.83;16.33;;;29.30;91.40;;;;;;5018343;28;20033;-58
2023/07/06 08:31:18;;;;;;;21.83;16.42;;;29.10;91.20;;;;;;5019690;28;20163;-58
2023/07/06 08:33:47;;;;;;;20.75;14.75;;;29.10;90.30;;;;;;5034618;28;20125;-58
2023/07/06 08:36:15;;;;;;;19.23;14.65;;;28.90;91.00;;;;;;5037705;28;20030;-58
2023/07/06 08:38:43;;;;;;;20.25;13.93;;;28.80;89.90;;;;;;5037774;28;20033;-58
2023/07/06 08:41:30;;;;;;;22.88;13.13;;;28.70;90.00;;;;;;5029812;28;20038;-58
2023/07/06 08:44:02;;;;;;;19.83;13.50;;;29.00;87.70;;;;;;5032597;28;20032;-58
2023/07/06 08:46:32;;;;;;;18.02;14.50;;;29.10;92.30;;;;;;5008115;28;20103;-58
2023/07/06 08:49:00;;;;;;;18.58;14.05;;;29.30;89.10;;;;;;5034982;28;20498;-58
2023/07/06 08:51:35;;;;;;;18.30;14.27;;;29.30;86.50;;;;;;5036027;28;20107;-58
2023/07/06 08:54:24;;;;;;;20.77;14.98;;;29.40;87.70;;;;;;5035204;28;20029;-58
2023/07/06 08:56:51;;;;;;;21.65;16.20;;;29.40;86.80;;;;;;5036312;28;20038;-58
2023/07/06 08:59:32;;;;;;;18.40;14.05;;;29.30;88.40;;;;;;5036672;28;20034;-58
2023/07/06 09:02:01;;;;;;;20.75;14.52;;;29.00;89.70;;;;;;5029563;28;20034;-58
2023/07/06 09:04:27;;;;;;;19.05;14.77;;;28.90;90.10;;;;;;5032850;28;20066;-58
2023/07/06 09:06:57;;;;;;;18.67;13.70;;;29.10;90.10;;;;;;5029910;28;20045;-58
2023/07/06 09:09:24;;;;;;;26.92;14.60;;;29.50;87.60;;;;;;5021421;28;20034;-58
2023/07/06 09:11:51;;;;;;;19.65;14.88;;;29.50;88.40;;;;;;5016123;28;20029;-58
2023/07/06 09:14:20;;;;;;;21.42;14.63;;;29.70;85.60;;;;;;5015784;28;20033;-58
2023/07/06 09:16:51;;;;;;;18.08;14.48;;;29.70;85.80;;;;;;5024355;28;20109;-58
2023/07/06 09:19:17;;;;;;;23.30;14.00;;;29.80;83.20;;;;;;5034278;28;20022;-58
2023/07/06 09:21:47;;;;;;;23.27;13.45;;;29.60;84.30;;;;;;5032452;28;20048;-58
2023/07/06 09:24:13;;;;;;;18.48;13.55;;;29.40;85.60;;;;;;5036109;28;20382;-58
2023/07/06 09:26:42;;;;;;;22.40;14.80;;;29.40;85.30;;;;;;5036213;28;20527;-58
2023/07/06 09:29:25;;;;;;;19.20;15.00;;;29.30;85.40;;;;;;5035958;28;20021;-58
2023/07/06 09:32:09;;;;;;;21.33;14.43;;;29.30;84.20;;;;;;5035784;28;20467;-58
2023/07/06 09:34:35;;;;;;;19.98;14.35;;;29.30;84.60;;;;;;5033208;28;20041;-59
2023/07/06 09:37:03;;;;;;;21.90;14.02;;;29.50;83.40;;;;;;5035834;28;20056;-59
2023/07/06 09:39:29;;;;;;;17.58;13.15;;;29.40;82.60;;;;;;5029568;28;20469;-58
2023/07/06 09:41:57;;;;;;;20.45;13.65;;;29.40;83.60;;;;;;5027829;28;20065;-58
2023/07/06 09:44:32;;;;;;;18.48;13.70;;;29.40;85.60;;;;;;5029714;28;20516;-58
2023/07/06 09:46:59;;;;;;;17.80;14.15;;;29.40;83.90;;;;;;5028535;28;20437;-58
2023/07/06 09:49:35;;;;;;;20.20;14.40;;;29.40;84.50;;;;;;5016395;28;20022;-58
2023/07/06 09:52:13;;;;;;;22.40;13.43;;;29.30;83.30;;;;;;5016512;28;20104;-59
2023/07/06 09:54:58;;;;;;;18.83;13.80;;;29.20;85.70;;;;;;5016480;28;20072;-58
2023/07/06 09:57:27;;;;;;;19.27;13.80;;;29.30;85.10;;;;;;5016311;28;20048;-58
2023/07/06 09:59:53;;;;;;;21.35;13.95;;;29.30;86.10;;;;;;5016231;28;20034;-58
2023/07/06 10:02:43;;;;;;;19.08;14.48;;;29.20;85.70;;;;;;5016341;28;20037;-58
2023/07/06 10:05:35;;;;;;;21.15;14.30;;;29.00;86.60;;;;;;5025351;28;20086;-58
2023/07/06 10:08:21;;;;;;;18.88;15.13;;;29.00;88.10;;;;;;5033421;28;20079;-58
2023/07/06 10:11:22;;;;;;;19.42;13.27;;;29.30;83.80;;;;;;5017833;28;20466;-58
2023/07/06 10:14:05;;;;;;;15.38;12.57;;;29.40;85.20;;;;;;5023014;28;20037;-58
2023/07/06 10:17:01;;;;;;;20.55;13.65;;;29.60;83.30;;;;;;5030026;28;20471;-58
2023/07/06 10:19:51;;;;;;;23.83;12.25;;;29.90;86.30;;;;;;5033835;28;20029;-58
2023/07/06 10:22:43;;;;;;;21.50;12.30;;;29.80;81.50;;;;;;5018593;28;20042;-59
2023/07/06 10:25:39;;;;;;;17.05;11.57;;;30.60;82.40;;;;;;5035835;28;20037;-59
2023/07/06 10:28:13;;;;;;;23.23;11.93;;;30.80;77.40;;;;;;5035464;28;20040;-58
2023/07/06 10:30:45;;;;;;;15.52;10.98;;;31.10;77.40;;;;;;5032969;28;20029;-58
2023/07/06 10:33:18;;;;;;;20.63;12.15;;;31.00;76.50;;;;;;5030252;28;20033;-58
2023/07/06 10:35:45;;;;;;;15.93;10.90;;;31.00;78.10;;;;;;5035170;28;20045;-58
2023/07/06 10:38:12;;;;;;;16.63;11.23;;;31.00;76.50;;;;;;5035252;28;20041;-59
2023/07/06 10:40:38;;;;;;;17.13;10.55;;;31.60;77.90;;;;;;5034696;28;20072;-58
2023/07/06 10:43:14;;;;;;;17.48;12.30;;;31.10;72.60;;;;;;5034493;28;20028;-58
2023/07/06 10:45:51;;;;;;;19.95;11.35;;;30.70;73.60;;;;;;5034881;28;20075;-59
2023/07/06 10:48:54;;;;;;;20.67;12.73;;;31.30;77.40;;;;;;5030551;28;20064;-59
2023/07/06 10:51:55;;;;;;;20.85;13.48;;;31.90;72.00;;;;;;4989238;28;20049;-59
2023/07/06 10:54:29;;;;;;;16.15;13.02;;;31.50;71.00;;;;;;5014452;28;20034;-59
2023/07/06 10:57:12;;;;;;;26.67;13.80;;;31.70;72.60;;;;;;5014933;28;20029;-59
2023/07/06 10:59:47;;;;;;;17.40;14.23;;;31.70;71.00;;;;;;5014667;28;20104;-58
2023/07/06 11:02:13;;;;;;;24.25;16.05;;;31.90;68.90;;;;;;5014057;28;20044;-59
2023/07/06 11:04:39;;;;;;;22.63;15.65;;;31.60;69.30;;;;;;5015272;28;20026;-58
2023/07/06 11:07:09;;;;;;;20.92;15.57;;;32.00;70.20;;;;;;5015093;28;20049;-59
2023/07/06 11:10:09;;;;;;;20.02;13.93;;;32.40;66.30;;;;;;5014302;28;20037;-59
2023/07/06 11:12:54;;;;;;;23.27;17.23;;;32.30;65.80;;;;;;5014772;28;20036;-59
2023/07/06 11:15:29;;;;;;;27.58;17.85;;;32.70;66.10;;;;;;5014494;28;20049;-59
2023/07/06 11:17:56;;;;;;;21.88;17.10;;;32.70;67.80;;;;;;5023326;28;20483;-58
2023/07/06 11:20:28;;;;;;;23.00;18.17;;;32.50;68.20;;;;;;5035077;28;20030;-59
2023/07/06 11:23:04;;;;;;;23.15;19.52;;;33.00;67.30;;;;;;5016378;28;20025;-59
2023/07/06 11:25:31;;;;;;;28.77;24.45;;;33.10;62.70;;;;;;5033971;28;20021;-58
2023/07/06 11:28:06;;;;;;;32.40;26.35;;;32.80;60.90;;;;;;5014839;28;20042;-58
2023/07/06 11:30:56;;;;;;;42.28;24.77;;;32.40;61.40;;;;;;5029361;28;20087;-58
2023/07/06 11:33:33;;;;;;;36.03;27.17;;;32.40;63.50;;;;;;5032173;28;20033;-59
2023/07/06 11:36:39;;;;;;;29.58;23.77;;;32.20;62.30;;;;;;5031301;28;20030;-59
2023/07/06 11:39:11;;;;;;;26.27;22.52;;;32.20;65.10;;;;;;5000120;28;20125;-59
2023/07/06 11:41:41;;;;;;;26.45;23.52;;;31.70;63.60;;;;;;5029356;28;20061;-59
2023/07/06 11:44:44;;;;;;;28.52;25.35;;;31.60;64.90;;;;;;5034017;28;20057;-59
2023/07/06 11:47:53;;;;;;;29.10;24.35;;;31.20;68.10;;;;;;5022174;28;20471;-59
2023/07/06 11:50:22;;;;;;;35.13;28.88;;;31.30;63.90;;;;;;5034021;28;20064;-58
2023/07/06 11:53:09;;;;;;;31.70;24.98;;;31.10;67.30;;;;;;5033548;28;20117;-58
2023/07/06 11:56:05;;;;;;;34.50;28.75;;;30.80;64.90;;;;;;5033517;28;20034;-58
2023/07/06 11:58:31;;;;;;;31.75;26.63;;;31.10;67.30;;;;;;5033236;28;20042;-58
2023/07/06 12:01:10;;;;;;;35.63;29.30;;;31.10;69.10;;;;;;5033468;28;20429;-59
2023/07/06 12:03:36;;;;;;;31.75;26.33;;;31.10;67.00;;;;;;5033781;28;20037;-59
2023/07/06 12:06:03;;;;;;;30.75;25.00;;;31.10;66.90;;;;;;5033222;28;20046;-58
2023/07/06 12:08:37;;;;;;;28.05;23.25;;;31.40;68.60;;;;;;5033313;28;20021;-58
2023/07/06 12:11:22;;;;;;;28.35;25.35;;;31.30;65.80;;;;;;5034246;28;20121;-58
2023/07/06 12:13:53;;;;;;;31.50;26.60;;;31.40;69.00;;;;;;5033423;28;20052;-58
2023/07/06 12:16:25;;;;;;;33.42;28.58;;;31.80;66.40;;;;;;5033435;28;20057;-58
2023/07/06 12:19:03;;;;;;;29.70;25.92;;;31.80;65.00;;;;;;5032251;28;20056;-58
2023/07/06 12:21:31;;;;;;;33.38;26.70;;;31.50;64.70;;;;;;5036581;28;20047;-58
2023/07/06 12:23:59;;;;;;;32.95;29.38;;;31.30;64.90;;;;;;5037135;28;20109;-58
2023/07/06 12:26:29;;;;;;;30.98;27.77;;;31.60;66.00;;;;;;5036948;28;20021;-58
2023/07/06 12:29:16;;;;;;;33.45;28.08;;;31.20;68.30;;;;;;5036817;28;20033;-58
2023/07/06 12:32:21;;;;;;;38.60;28.13;;;31.10;67.20;;;;;;5037807;28;20113;-57
2023/07/06 12:34:51;;;;;;;35.33;28.83;;;30.90;69.10;;;;;;5036004;28;20029;-57
2023/07/06 12:37:20;;;;;;;33.30;29.38;;;30.80;71.00;;;;;;5036081;28;20033;-57
2023/07/06 12:39:47;;;;;;;34.83;30.13;;;30.60;68.80;;;;;;5036467;28;20029;-57
2023/07/06 12:42:17;;;;;;;39.65;28.58;;;30.20;70.20;;;;;;5037058;28;20060;-57
2023/07/06 12:44:47;;;;;;;35.42;28.63;;;30.50;70.40;;;;;;5036687;28;20075;-57